Time;durP1;ratioP1;P1;durP2;ratioP2;P2;SDS_P1;SDS_P2;PMS_P1;PMS_P2;Temp;Humidity;BMP_temperature;BMP_pressure;BME280_temperature;BME280_humidity;BME280_pressure;Samples;Min_cycle;Max_cycle;Signal;HPM_P1;HPM_P2
2021/12/16 00:09:35;;;;;;;66.33;32.65;;;;;;;6.98;95.53;100303.02;1714375;82;21083;-51
2021/12/16 00:31:16;;;;;;;66.75;31.85;;;;;;;6.85;96.10;100307.22;1717703;83;21073;-50
2021/12/16 00:33:35;;;;;;;70.65;31.48;;;;;;;6.87;96.02;100302.81;1714966;82;21535;-53
2021/12/16 00:36:00;;;;;;;61.13;30.60;;;;;;;6.83;96.26;100297.70;1717990;82;21533;-49
2021/12/16 00:38:27;;;;;;;75.80;32.95;;;;;;;6.84;96.44;100298.10;1714799;83;21018;-49
2021/12/16 00:40:55;;;;;;;60.38;28.85;;;;;;;6.89;96.45;100296.24;1716607;82;21017;-51
2021/12/16 00:43:33;;;;;;;62.30;30.85;;;;;;;6.91;96.20;100299.67;1710311;83;21023;-51
2021/12/16 00:46:14;;;;;;;61.75;30.25;;;;;;;6.87;96.40;100302.81;1721428;82;21761;-49
2021/12/16 00:48:49;;;;;;;67.10;31.62;;;;;;;6.93;96.16;100308.37;1715715;83;21078;-51
2021/12/16 00:56:14;;;;;;;76.28;33.48;;;;;;;6.96;95.97;100304.81;1714896;83;21086;-51
2021/12/16 00:58:50;;;;;;;69.00;31.93;;;;;;;6.97;96.04;100303.89;1715985;82;21030;-48
2021/12/16 01:01:42;;;;;;;69.10;31.62;;;;;;;7.01;95.74;100300.33;1718008;82;21010;-51
2021/12/16 01:07:06;;;;;;;70.83;32.55;;;;;;;7.00;95.76;100297.29;1722258;82;21094;-53
2021/12/16 01:10:05;;;;;;;72.55;33.13;;;;;;;6.94;95.98;100290.45;1717329;82;20971;-50
2021/12/16 01:46:37;;;;;;;72.62;35.25;;;;;;;6.96;96.28;100282.13;1691840;82;21057;-52
2021/12/16 01:49:16;;;;;;;65.92;35.58;;;;;;;6.96;96.12;100278.66;1718950;82;20998;-51
2021/12/16 01:51:52;;;;;;;71.17;36.05;;;;;;;6.99;96.09;100276.83;1716838;83;21039;-51
2021/12/16 01:57:03;;;;;;;65.50;33.20;;;;;;;6.96;96.00;100270.36;1718393;83;21051;-49
2021/12/16 01:59:22;;;;;;;66.02;33.58;;;;;;;6.99;96.13;100283.83;1718216;82;21046;-51
2021/12/16 02:01:48;;;;;;;;;;;;;;;6.87;96.57;100277.13;1726857;82;21138;-52
2021/12/16 02:04:27;;;;;;;72.37;34.67;;;;;;;6.94;96.52;100281.77;1715066;82;20400;-49
2021/12/16 02:09:26;;;;;;;69.58;35.43;;;;;;;6.95;96.33;100279.54;1714854;83;21054;-50
2021/12/16 02:11:56;;;;;;;74.15;35.43;;;;;;;6.94;96.53;100284.37;1719544;82;21000;-50
2021/12/16 02:28:13;;;;;;;69.50;34.13;;;;;;;6.84;97.01;100266.30;1713400;83;21050;-52
2021/12/16 02:33:18;;;;;;;63.15;33.65;;;;;;;6.85;96.75;100264.08;1718519;82;21174;-50
2021/12/16 02:36:01;;;;;;;61.65;32.45;;;;;;;6.92;96.87;100265.65;1709992;83;21043;-50
2021/12/16 02:38:19;;;;;;;68.45;34.95;;;;;;;6.99;96.63;100268.98;1724931;82;20987;-49
2021/12/16 02:40:56;;;;;;;56.83;30.17;;;;;;;7.01;96.32;100263.26;1720019;79;21016;31
2021/12/16 02:48:42;;;;;;;60.98;32.75;;;;;;;7.07;95.88;100263.09;1709965;81;21074;-52
2021/12/16 02:51:24;;;;;;;62.13;31.97;;;;;;;7.06;95.65;100277.55;1769234;78;21041;-50
2021/12/16 02:54:02;;;;;;;55.50;30.27;;;;;;;7.04;95.63;100271.47;1764831;78;21018;-50
2021/12/16 02:56:29;;;;;;;60.48;32.08;;;;;;;7.04;95.55;100272.34;1750285;79;21503;-51
2021/12/16 02:58:57;;;;;;;57.98;31.97;;;;;;;7.03;95.52;100275.84;1771488;78;21045;-49
2021/12/16 03:01:43;;;;;;;56.55;31.57;;;;;;;7.02;95.45;100274.57;1763507;78;21516;-50
2021/12/16 03:04:14;;;;;;;57.58;31.85;;;;;;;7.04;95.59;100272.77;1766499;78;20998;-50
2021/12/16 03:06:44;;;;;;;52.30;30.65;;;;;;;7.07;95.37;100273.55;1770940;80;20991;-50
2021/12/16 03:09:15;;;;;;;54.15;31.82;;;;;;;7.00;95.39;100282.91;1769266;78;21043;-58
2021/12/16 03:14:39;;;;;;;52.20;30.80;;;;;;;7.15;95.11;100272.50;1702120;83;21029;-51
2021/12/16 03:17:25;;;;;;;44.73;27.42;;;;;;;7.10;94.86;100273.95;1710513;83;21020;-49
2021/12/16 03:20:04;;;;;;;53.42;30.92;;;;;;;7.11;94.66;100269.98;1705074;81;21050;-52
2021/12/16 03:25:20;;;;;;;64.00;35.25;;;;;;;7.08;94.28;100280.52;1756420;79;21010;-47
2021/12/16 03:37:58;;;;;;;88.12;38.05;;;;;;;7.14;94.02;100285.19;1770482;78;21002;-50
2021/12/16 03:40:26;;;;;;;121.97;46.42;;;;;;;7.02;93.86;100283.72;1773851;78;21018;-54
2021/12/16 03:43:06;;;;;;;152.93;53.45;;;;;;;7.07;93.86;100287.94;1757990;80;21023;-50
2021/12/16 03:48:43;;;;;;;;;;;;;;;7.11;93.57;100281.77;1773472;79;21014;-52
2021/12/16 03:51:23;;;;;;;44.90;27.40;;;;;;;7.04;93.48;100279.31;1754601;79;20112;-50
2021/12/16 03:53:52;;;;;;;44.45;26.50;;;;;;;7.02;93.58;100288.53;1762608;79;21128;-52
2021/12/16 03:56:19;;;;;;;37.98;24.85;;;;;;;7.04;93.40;100285.42;1741318;79;21515;-51
2021/12/16 03:58:45;;;;;;;43.02;27.55;;;;;;;7.00;93.50;100285.52;1748237;80;20991;-54
2021/12/16 04:01:16;;;;;;;41.77;25.88;;;;;;;7.01;93.29;100289.88;1753621;80;21009;-53
2021/12/16 04:03:43;;;;;;;42.62;27.42;;;;;;;6.97;93.38;100296.05;1735687;80;21115;-52
2021/12/16 04:06:11;;;;;;;47.60;27.97;;;;;;;6.96;93.53;100295.20;1715764;81;20981;-51
2021/12/16 04:08:37;;;;;;;41.53;26.17;;;;;;;6.94;93.41;100290.45;1714993;81;21575;-50
2021/12/16 04:11:19;;;;;;;41.92;26.52;;;;;;;6.95;93.46;100291.31;1701343;81;21101;-54
2021/12/16 04:13:56;;;;;;;39.80;25.15;;;;;;;6.99;93.44;100294.28;1769548;78;21039;-54
2021/12/16 04:16:46;;;;;;;41.02;25.37;;;;;;;7.00;93.24;100286.83;1745654;80;21511;-50
2021/12/16 04:19:16;;;;;;;38.42;24.80;;;;;;;6.96;93.15;100285.20;1760578;80;21550;-51
2021/12/16 04:21:48;;;;;;;39.10;24.82;;;;;;;6.99;93.10;100288.59;1761611;79;21014;-53
2021/12/16 04:24:14;;;;;;;40.85;24.47;;;;;;;6.94;93.14;100284.37;1753251;80;21014;-52
2021/12/16 04:26:43;;;;;;;39.78;24.75;;;;;;;6.96;93.12;100281.27;1754767;79;21014;-52
2021/12/16 04:29:09;;;;;;;37.35;24.70;;;;;;;6.96;93.13;100283.43;1751778;79;21077;-51
2021/12/16 04:31:37;;;;;;;37.48;24.70;;;;;;;6.93;93.13;100280.91;1760339;78;20991;-54
2021/12/16 04:34:05;;;;;;;36.40;23.02;;;;;;;6.90;93.21;100288.36;1770152;79;21117;-53
2021/12/16 04:36:31;;;;;;;37.70;23.30;;;;;;;6.95;93.26;100286.08;1768143;78;21003;-52
2021/12/16 04:38:58;;;;;;;37.35;24.35;;;;;;;6.89;93.16;100284.05;1774172;79;21586;-54
2021/12/16 04:41:27;;;;;;;35.50;24.25;;;;;;;6.90;93.02;100287.52;1775547;78;21053;-51
2021/12/16 04:43:55;;;;;;;37.67;24.00;;;;;;;6.86;93.18;100288.49;1767425;78;21445;-49
2021/12/16 04:46:26;;;;;;;35.80;23.07;;;;;;;6.85;93.40;100285.45;1766732;80;21491;-52
2021/12/16 04:48:56;;;;;;;32.75;23.67;;;;;;;6.85;93.42;100281.53;1751704;80;21010;-53
2021/12/16 04:51:26;;;;;;;37.03;23.20;;;;;;;6.90;93.23;100284.91;1746338;80;21039;-56
2021/12/16 04:53:52;;;;;;;37.17;22.22;;;;;;;6.92;93.05;100283.95;1739243;80;21128;-49
2021/12/16 04:56:18;;;;;;;39.20;23.52;;;;;;;6.90;93.05;100273.98;1749268;80;20975;-52
2021/12/16 04:58:49;;;;;;;36.48;21.62;;;;;;;6.92;93.01;100266.11;1750247;80;21049;-54
2021/12/16 05:01:16;;;;;;;34.50;22.82;;;;;;;6.91;92.88;100264.37;1751103;80;21508;-52
2021/12/16 05:03:42;;;;;;;37.60;23.10;;;;;;;6.87;93.02;100261.44;1751322;80;21025;-51
2021/12/16 05:06:10;;;;;;;33.80;20.97;;;;;;;6.87;92.97;100254.44;1752147;79;20982;-54
2021/12/16 05:08:37;;;;;;;30.43;21.33;;;;;;;6.89;92.83;100256.59;1765020;80;21674;-49
2021/12/16 05:11:06;;;;;;;34.27;21.82;;;;;;;6.85;92.75;100258.84;1761603;80;20991;-51
2021/12/16 05:13:34;;;;;;;36.08;22.48;;;;;;;6.88;92.73;100266.63;1757087;79;21046;-55
2021/12/16 05:16:04;;;;;;;34.03;21.55;;;;;;;6.85;92.73;100261.92;1751466;79;21061;-53
2021/12/16 05:18:34;;;;;;;37.00;22.50;;;;;;;6.86;92.72;100251.89;1754360;80;21019;-51
2021/12/16 05:21:05;;;;;;;38.67;23.07;;;;;;;6.85;92.65;100259.31;1752058;79;21010;-54
2021/12/16 05:26:21;;;;;;;34.50;21.40;;;;;;;6.84;92.57;100258.45;1752677;80;20989;-52
2021/12/16 05:28:56;;;;;;;32.73;22.48;;;;;;;6.81;92.34;100254.59;1749703;80;20963;-52
2021/12/16 05:31:25;;;;;;;46.45;30.48;;;;;;;6.79;92.58;100259.02;1755243;80;21041;-50
2021/12/16 05:33:55;;;;;;;36.45;21.60;;;;;;;6.81;92.75;100257.22;1750548;79;21408;-53
2021/12/16 05:36:21;;;;;;;37.78;23.35;;;;;;;6.81;92.58;100253.30;1757721;79;21084;-53
2021/12/16 05:38:48;;;;;;;45.50;23.42;;;;;;;6.76;92.64;100256.92;1751973;79;20963;-50
2021/12/16 05:41:18;;;;;;;42.67;24.10;;;;;;;6.74;92.82;100262.18;1761987;80;21785;-52
2021/12/16 05:43:45;;;;;;;32.40;21.33;;;;;;;6.75;92.75;100261.30;1759050;78;21019;-54
2021/12/16 05:46:13;;;;;;;36.00;21.57;;;;;;;6.78;92.83;100262.51;1755027;81;21544;-53
2021/12/16 05:48:42;;;;;;;34.83;21.02;;;;;;;6.83;92.82;100259.34;1762444;79;20998;-53
2021/12/16 05:51:13;;;;;;;36.73;20.97;;;;;;;6.84;92.73;100257.58;1753752;79;21348;-52
2021/12/16 05:53:41;;;;;;;36.05;23.30;;;;;;;6.76;93.20;100265.61;1766580;79;21002;-53
2021/12/16 05:56:07;;;;;;;38.15;23.87;;;;;;;6.78;93.21;100263.81;1756241;79;20975;-52
2021/12/16 05:58:34;;;;;;;35.68;22.32;;;;;;;6.81;92.94;100266.83;1766915;79;20980;-52
2021/12/16 06:01:05;;;;;;;38.30;23.32;;;;;;;6.82;92.75;100264.17;1753092;79;21191;-48
2021/12/16 06:03:32;;;;;;;32.95;21.50;;;;;;;6.78;92.82;100262.97;1772421;79;21011;-52
2021/12/16 06:05:58;;;;;;;43.20;24.60;;;;;;;6.76;92.95;100267.37;1755525;79;20972;-53
2021/12/16 06:08:24;;;;;;;35.55;22.75;;;;;;;6.73;93.33;100269.17;1751487;79;21899;-53
2021/12/16 06:13:18;;;;;;;38.17;24.55;;;;;;;6.71;93.28;100277.92;1768074;79;20976;-53
2021/12/16 06:26:43;;;;;;;38.10;22.82;;;;;;;6.67;94.25;100257.98;1736007;80;21669;-52
2021/12/16 06:28:58;;;;;;;31.80;21.07;;;;;;;6.69;94.19;100254.89;1748197;79;20978;-54
2021/12/16 06:31:24;;;;;;;34.20;22.80;;;;;;;6.71;94.21;100258.32;1752075;80;21054;-56
2021/12/16 06:33:50;;;;;;;36.60;22.20;;;;;;;6.76;93.73;100260.84;1753021;79;21015;-53
2021/12/16 06:36:16;;;;;;;36.48;23.07;;;;;;;6.70;93.83;100262.70;1756178;80;21009;-54
2021/12/16 06:38:42;;;;;;;37.65;22.85;;;;;;;6.68;93.84;100256.66;1765288;79;21006;-53
2021/12/16 06:41:08;;;;;;;35.95;21.95;;;;;;;6.72;93.75;100262.67;1760300;79;21037;-54
2021/12/16 06:43:35;;;;;;;39.70;23.10;;;;;;;6.73;93.73;100263.06;1758843;79;21573;-53
2021/12/16 06:46:05;;;;;;;37.95;23.00;;;;;;;6.64;94.17;100264.16;1761251;80;21001;-52
2021/12/16 06:48:33;;;;;;;38.08;22.80;;;;;;;6.51;94.53;100254.88;1751468;79;21458;-52
2021/12/16 06:51:08;;;;;;;36.17;22.85;;;;;;;6.59;94.44;100267.78;1758345;79;20963;-52
2021/12/16 06:54:01;;;;;;;36.93;23.70;;;;;;;6.64;94.26;100268.51;1761591;80;20998;-55
2021/12/16 06:56:11;;;;;;;32.10;20.72;;;;;;;6.63;94.23;100265.50;1694332;81;20990;-53
2021/12/16 06:58:44;;;;;;;34.33;21.68;;;;;;;6.51;94.38;100256.17;1762191;78;21003;-55
2021/12/16 07:01:17;;;;;;;33.28;22.58;;;;;;;6.54;94.49;100263.50;1765573;79;21484;-52
2021/12/16 07:03:49;;;;;;;36.40;23.47;;;;;;;6.60;94.13;100273.41;1766717;78;21030;-51
2021/12/16 07:06:22;;;;;;;37.10;23.32;;;;;;;6.57;94.45;100267.81;1772208;79;21643;-53
2021/12/16 07:08:53;;;;;;;37.75;22.20;;;;;;;6.59;94.54;100271.25;1765966;78;20978;-55
2021/12/16 07:11:20;;;;;;;36.00;23.12;;;;;;;6.54;94.64;100273.95;1754758;79;21610;-53
2021/12/16 07:13:56;;;;;;;36.75;22.58;;;;;;;6.60;94.48;100273.41;1764554;79;21011;-55
2021/12/16 07:16:14;;;;;;;38.98;22.17;;;;;;;6.62;94.18;100271.19;1764502;80;21010;-57
2021/12/16 07:18:40;;;;;;;41.05;23.12;;;;;;;6.62;94.16;100279.45;1751314;79;21014;-54
2021/12/16 07:21:07;;;;;;;33.85;20.88;;;;;;;6.58;94.75;100272.59;1777078;78;22533;-51
2021/12/16 07:23:33;;;;;;;36.63;23.00;;;;;;;6.61;94.60;100270.77;1759517;79;21032;-53
2021/12/16 07:25:59;;;;;;;34.83;20.90;;;;;;;6.61;94.45;100273.38;1763182;79;21045;-56
2021/12/16 07:28:27;;;;;;;32.88;20.92;;;;;;;6.65;94.33;100276.78;1766413;78;21007;-55
2021/12/16 07:30:53;;;;;;;31.07;21.52;;;;;;;6.63;94.31;100275.95;1771129;78;21006;-54
2021/12/16 07:33:19;;;;;;;30.70;20.23;;;;;;;6.61;94.37;100276.44;1762791;78;21437;-54
2021/12/16 07:35:47;;;;;;;31.35;21.48;;;;;;;6.63;94.36;100274.65;1746236;80;21053;-52
2021/12/16 07:38:14;;;;;;;32.38;21.80;;;;;;;6.67;94.09;100280.20;1759375;79;21019;-54
2021/12/16 07:40:42;;;;;;;29.73;21.13;;;;;;;6.66;94.21;100282.43;1752114;80;21006;-52
2021/12/16 07:45:42;;;;;;;38.00;22.58;;;;;;;6.59;94.41;100276.93;1752809;79;21038;-56
2021/12/16 07:48:11;;;;;;;34.35;22.27;;;;;;;6.65;94.49;100275.47;1756857;78;21049;-56
2021/12/16 07:50:39;;;;;;;33.92;21.95;;;;;;;6.67;94.47;100277.59;1746727;80;21002;-53
2021/12/16 07:53:05;;;;;;;42.45;21.20;;;;;;;6.62;94.89;100279.03;1753222;80;21483;-54
2021/12/16 07:55:33;;;;;;;34.63;21.60;;;;;;;6.65;94.84;100275.47;1755224;79;21006;-56
2021/12/16 07:57:59;;;;;;;33.70;21.02;;;;;;;6.63;94.89;100279.88;1753684;80;21124;-55
2021/12/16 08:00:31;;;;;;;55.67;31.48;;;;;;;6.67;94.88;100278.91;1750751;80;21058;-54
2021/12/16 08:02:57;;;;;;;34.23;22.37;;;;;;;6.61;95.30;100280.36;1751779;80;21101;-51
2021/12/16 08:05:26;;;;;;;38.92;22.27;;;;;;;6.69;95.00;100281.91;1751482;80;21494;-53
2021/12/16 08:07:52;;;;;;;33.45;20.80;;;;;;;6.73;94.70;100284.86;1743841;80;21554;-50
2021/12/16 08:10:22;;;;;;;30.55;19.90;;;;;;;6.72;94.80;100284.43;1752682;79;21049;-52
2021/12/16 08:12:49;;;;;;;33.98;22.22;;;;;;;6.77;94.59;100280.41;1751690;80;21006;-52
2021/12/16 08:15:16;;;;;;;28.33;19.77;;;;;;;6.76;94.38;100285.22;1752995;79;21041;-52
2021/12/16 08:17:43;;;;;;;30.05;20.80;;;;;;;6.72;94.54;100287.50;1753837;79;21018;-50
2021/12/16 08:20:11;;;;;;;30.65;20.32;;;;;;;6.68;94.97;100280.18;1755057;79;21143;-51
2021/12/16 08:22:37;;;;;;;31.27;20.25;;;;;;;6.72;94.81;100289.66;1752939;80;21022;-53
2021/12/16 08:25:05;;;;;;;33.48;21.62;;;;;;;6.66;95.02;100280.67;1753133;80;21061;-50
2021/12/16 08:27:33;;;;;;;;;;;;;;;6.64;95.10;100284.19;1752232;80;21006;-50
2021/12/16 08:30:00;;;;;;;32.75;21.87;;;;;;;6.64;95.11;100290.30;1755343;80;20113;-52
2021/12/16 08:32:25;;;;;;;30.55;20.20;;;;;;;6.69;95.19;100294.09;1752191;80;21526;-52
2021/12/16 08:34:51;;;;;;;35.65;20.08;;;;;;;6.70;95.36;100291.91;1752858;79;20971;-49
2021/12/16 08:37:17;;;;;;;32.50;20.75;;;;;;;6.71;95.17;100298.41;1749960;80;21021;-53
2021/12/16 08:39:44;;;;;;;32.30;19.80;;;;;;;6.72;95.38;100297.95;1743549;80;20994;-53
2021/12/16 08:42:11;;;;;;;34.70;22.30;;;;;;;6.74;95.07;100301.39;1750303;80;21053;-50
2021/12/16 08:44:38;;;;;;;42.58;29.35;;;;;;;6.71;95.01;100301.03;1756179;79;21870;-50
2021/12/16 08:47:09;;;;;;;33.98;20.62;;;;;;;6.69;95.25;100305.86;1766320;79;20998;-53
2021/12/16 08:49:36;;;;;;;43.55;24.35;;;;;;;6.70;95.55;100312.36;1750734;80;21052;-52
2021/12/16 08:52:07;;;;;;;45.53;26.77;;;;;;;6.69;95.67;100308.47;1754921;79;21005;-53
2021/12/16 08:54:33;;;;;;;32.20;19.62;;;;;;;6.70;95.77;100308.90;1753415;80;21014;-53
2021/12/16 08:57:00;;;;;;;31.52;18.55;;;;;;;6.75;95.45;100307.05;1761655;79;21626;-54
2021/12/16 08:59:26;;;;;;;30.90;19.27;;;;;;;6.72;95.61;100308.41;1762576;79;21015;-51
2021/12/16 09:01:56;;;;;;;30.90;17.40;;;;;;;6.71;95.86;100307.98;1754349;79;21594;-52
2021/12/16 09:04:24;;;;;;;35.25;21.82;;;;;;;6.72;96.08;100305.34;1761739;78;21582;-53
2021/12/16 09:06:53;;;;;;;30.92;19.98;;;;;;;6.71;95.82;100301.03;1760554;80;21045;-53
2021/12/16 09:09:19;;;;;;;40.15;26.73;;;;;;;6.78;95.76;100308.26;1772108;79;21085;-50
2021/12/16 09:12:02;;;;;;;36.93;22.35;;;;;;;6.81;95.49;100317.80;1766006;78;21014;-53
2021/12/16 09:14:13;;;;;;;30.02;19.48;;;;;;;6.80;95.57;100303.00;1762893;78;20963;-49
2021/12/16 09:16:39;;;;;;;33.13;19.90;;;;;;;6.83;95.64;100310.78;1754786;78;21002;-54
2021/12/16 09:19:06;;;;;;;29.30;19.92;;;;;;;6.79;95.78;100309.14;1743487;79;20986;-53
2021/12/16 09:21:36;;;;;;;34.05;23.02;;;;;;;6.77;95.77;100308.29;1752053;79;21041;-53
2021/12/16 09:24:07;;;;;;;38.85;25.25;;;;;;;6.75;96.19;100303.12;1753512;79;21010;-51
2021/12/16 09:26:33;;;;;;;28.90;18.57;;;;;;;6.75;95.93;100310.97;1755635;79;21009;-56
2021/12/16 09:29:00;;;;;;;37.50;20.60;;;;;;;6.76;96.11;100305.28;1753782;80;21002;-50
2021/12/16 09:31:28;;;;;;;27.98;17.70;;;;;;;6.69;96.29;100296.72;1756382;79;21590;-53
2021/12/16 09:34:02;;;;;;;37.13;18.82;;;;;;;6.73;96.60;100298.35;1755001;80;20997;-55
2021/12/16 09:36:27;;;;;;;30.90;17.87;;;;;;;6.71;96.60;100282.73;1746836;80;20998;-52
2021/12/16 09:38:56;;;;;;;27.55;16.10;;;;;;;6.74;96.86;100298.78;1751383;80;21039;-52
2021/12/16 09:41:24;;;;;;;25.27;15.85;;;;;;;6.74;96.99;100293.55;1748389;80;21037;-51
2021/12/16 09:43:53;;;;;;;23.38;15.00;;;;;;;6.76;96.92;100291.75;1752112;79;21014;-55
2021/12/16 09:46:23;;;;;;;23.12;15.72;;;;;;;6.85;96.67;100301.14;1760393;80;21157;-52
2021/12/16 09:48:50;;;;;;;27.67;15.13;;;;;;;6.84;96.32;100296.80;1746335;80;21011;-51
2021/12/16 09:51:23;;;;;;;21.65;14.73;;;;;;;6.87;96.59;100294.97;1755996;79;21057;-50
2021/12/16 09:53:59;;;;;;;21.82;13.70;;;;;;;6.91;96.70;100291.83;1757169;79;21070;-52
2021/12/16 09:56:28;;;;;;;22.27;15.87;;;;;;;6.92;96.60;100288.33;1766436;78;21058;-54
2021/12/16 09:58:56;;;;;;;30.80;22.82;;;;;;;6.98;96.39;100283.40;1755881;80;21017;-52
2021/12/16 10:01:24;;;;;;;24.02;16.02;;;;;;;7.02;96.51;100286.34;1759636;78;21010;-50
2021/12/16 10:03:56;;;;;;;21.82;15.35;;;;;;;7.07;96.41;100284.47;1724791;80;21516;-49
2021/12/16 10:06:21;;;;;;;22.85;14.13;;;;;;;7.10;96.33;100281.80;1764644;79;21096;-52
2021/12/16 10:08:48;;;;;;;21.02;13.43;;;;;;;7.10;96.38;100279.17;1756645;79;21002;-50
2021/12/16 10:11:15;;;;;;;21.07;13.27;;;;;;;7.08;96.22;100262.20;1766026;79;21015;-53
2021/12/16 10:14:02;;;;;;;22.93;12.47;;;;;;;7.01;96.51;100280.72;1768392;80;21011;-53
2021/12/16 10:18:58;;;;;;;19.35;11.53;;;;;;;6.99;96.71;100268.13;1749578;79;21512;-51
2021/12/16 10:21:25;;;;;;;17.67;11.75;;;;;;;7.04;96.67;100272.34;1758759;79;20983;-47
2021/12/16 10:23:51;;;;;;;21.50;12.58;;;;;;;7.12;96.35;100272.14;1754156;79;21003;-51
2021/12/16 10:26:23;;;;;;;19.07;12.50;;;;;;;7.08;96.63;100273.98;1750212;80;20998;-52
2021/12/16 10:28:54;;;;;;;19.57;12.40;;;;;;;7.04;96.81;100266.23;1761485;79;21041;-51
2021/12/16 10:31:31;;;;;;;21.60;12.30;;;;;;;7.06;96.47;100259.23;1752801;79;21007;-55
2021/12/16 10:34:02;;;;;;;22.37;12.28;;;;;;;7.08;96.63;100273.98;1762553;79;20991;-52
2021/12/16 10:36:35;;;;;;;20.32;12.28;;;;;;;7.13;96.94;100275.19;1756006;79;21093;-53
2021/12/16 10:39:09;;;;;;;22.75;12.53;;;;;;;7.12;96.51;100283.92;1752748;78;22173;-54
2021/12/16 10:41:49;;;;;;;20.20;11.40;;;;;;;7.16;96.49;100293.39;1754040;80;20988;-55
2021/12/16 10:44:23;;;;;;;19.45;12.88;;;;;;;7.17;96.65;100290.33;1768197;79;21073;-52
2021/12/16 10:47:00;;;;;;;22.52;13.05;;;;;;;7.15;96.65;100284.28;1766272;79;20955;-52
2021/12/16 10:49:33;;;;;;;24.82;14.53;;;;;;;7.15;96.41;100290.39;1759498;78;20987;-52
2021/12/16 10:52:07;;;;;;;19.60;14.23;;;;;;;7.02;97.20;100288.53;1746386;80;20978;-56
2021/12/16 10:54:38;;;;;;;22.35;15.70;;;;;;;7.06;97.29;100289.31;1737508;81;20970;-52
2021/12/16 10:57:11;;;;;;;23.30;14.18;;;;;;;7.07;97.19;100289.70;1753297;80;20982;-54
2021/12/16 10:59:44;;;;;;;20.43;12.40;;;;;;;7.04;97.25;100293.70;1768661;80;20990;-51
2021/12/16 11:02:24;;;;;;;20.43;12.13;;;;;;;7.04;97.57;100290.66;1763051;80;21518;-52
2021/12/16 11:05:07;;;;;;;18.98;12.90;;;;;;;7.06;97.58;100289.31;1748005;79;21054;-52
2021/12/16 11:07:38;;;;;;;19.82;13.70;;;;;;;7.06;97.81;100296.70;1756718;79;21060;-53
2021/12/16 11:10:18;;;;;;;23.55;13.83;;;;;;;7.08;97.51;100299.28;1760801;79;21495;-49
2021/12/16 11:13:02;;;;;;;20.52;12.25;;;;;;;7.07;97.69;100289.70;1746849;79;21582;-53
2021/12/16 11:15:36;;;;;;;23.05;13.62;;;;;;;7.15;97.40;100281.23;1755944;79;21046;-53
2021/12/16 11:18:07;;;;;;;21.85;14.05;;;;;;;7.11;97.25;100284.80;1775928;78;21010;-52
2021/12/16 11:20:59;;;;;;;21.73;13.48;;;;;;;7.10;97.28;100277.41;1759014;79;21022;-53
2021/12/16 11:23:37;;;;;;;19.02;12.30;;;;;;;7.14;97.38;100274.27;1767699;79;21034;-51
2021/12/16 11:26:13;;;;;;;22.82;13.05;;;;;;;7.12;97.43;100266.91;1768921;79;21516;-55
2021/12/16 11:28:46;;;;;;;24.72;15.15;;;;;;;7.04;97.76;100265.81;1768002;78;21499;-51
2021/12/16 11:31:17;;;;;;;24.18;13.50;;;;;;;7.11;97.45;100266.06;1757894;78;20984;-52
2021/12/16 11:33:56;;;;;;;21.82;13.53;;;;;;;7.06;97.92;100265.77;1766375;78;21495;-52
2021/12/16 11:36:27;;;;;;;20.55;13.38;;;;;;;7.06;98.11;100254.00;1772039;79;20971;-49
2021/12/16 11:39:10;;;;;;;25.72;14.28;;;;;;;7.08;97.73;100256.12;1769342;79;20957;-54
2021/12/16 11:41:47;;;;;;;23.65;12.98;;;;;;;7.09;97.62;100255.21;1768233;78;20958;-51
2021/12/16 11:44:36;;;;;;;23.30;13.70;;;;;;;7.11;97.73;100259.95;1749029;79;21358;-51
2021/12/16 11:47:19;;;;;;;23.22;13.55;;;;;;;7.11;97.73;100259.95;1755277;80;22134;-53
2021/12/16 11:50:04;;;;;;;19.23;13.05;;;;;;;7.21;97.13;100261.91;1736814;80;21826;-48
2021/12/16 11:52:35;;;;;;;23.55;15.03;;;;;;;7.17;97.44;100264.16;1744834;81;20985;-53
2021/12/16 11:55:06;;;;;;;23.92;13.45;;;;;;;7.22;97.38;100257.94;1712984;79;21030;-52
2021/12/16 11:57:40;;;;;;;21.20;12.53;;;;;;;7.22;97.22;100257.94;1706234;81;21001;-52
2021/12/16 12:00:15;;;;;;;25.27;14.28;;;;;;;7.28;97.12;100257.77;1763356;79;21015;-52
2021/12/16 12:02:54;;;;;;;20.05;12.18;;;;;;;7.29;96.96;100254.70;1750435;80;21509;-51
2021/12/16 12:05:28;;;;;;;20.68;13.25;;;;;;;7.24;96.91;100260.49;1748774;80;20992;-52
2021/12/16 12:07:59;;;;;;;19.23;12.63;;;;;;;7.25;96.64;100260.91;1760678;79;21328;-50
2021/12/16 12:10:47;;;;;;;26.85;13.83;;;;;;;7.25;96.81;100255.22;1758761;80;20971;-55
2021/12/16 12:13:18;;;;;;;23.38;14.13;;;;;;;7.23;96.82;100257.48;1756351;79;20999;-51
2021/12/16 12:16:07;;;;;;;21.07;13.15;;;;;;;7.21;96.79;100263.21;1757918;80;21035;-56
2021/12/16 12:18:44;;;;;;;20.55;12.90;;;;;;;7.22;96.89;100259.25;1763405;80;20980;-52
2021/12/16 12:21:54;;;;;;;24.63;12.25;;;;;;;7.20;96.97;100268.87;1757206;78;21071;-52
2021/12/16 12:24:31;;;;;;;21.73;13.22;;;;;;;7.21;97.06;100249.67;1765348;80;21062;-52
2021/12/16 12:27:08;;;;;;;18.32;12.23;;;;;;;7.19;97.03;100240.16;1711637;81;21063;-50
2021/12/16 12:29:41;;;;;;;33.33;21.12;;;;;;;7.17;97.04;100242.81;1763450;80;20996;-53
2021/12/16 12:32:22;;;;;;;24.80;15.03;;;;;;;7.18;97.17;100247.59;1745963;78;21476;-51
2021/12/16 12:35:06;;;;;;;20.65;13.53;;;;;;;7.11;97.00;100250.80;1751934;79;20994;-55
2021/12/16 12:37:36;;;;;;;15.95;11.55;;;;;;;7.19;97.00;100266.32;1754544;80;21083;-49
2021/12/16 12:40:14;;;;;;;18.15;12.20;;;;;;;7.26;96.69;100278.34;1759851;79;21030;-48
2021/12/16 12:42:41;;;;;;;;;;;;;;;7.25;96.72;100273.54;1754655;80;21044;-53
2021/12/16 12:45:10;;;;;;;18.55;12.13;;;;;;;7.25;96.46;100285.31;1708726;81;20147;-56
2021/12/16 12:47:41;;;;;;;19.17;11.45;;;;;;;7.28;96.32;100276.08;1763043;79;21031;-53
2021/12/16 12:50:18;;;;;;;24.25;12.18;;;;;;;7.19;96.44;100272.86;1767975;79;21065;-54
2021/12/16 12:52:47;;;;;;;19.02;11.78;;;;;;;7.26;96.34;100271.34;1753550;79;21324;-53
2021/12/16 12:55:18;;;;;;;17.73;11.30;;;;;;;7.29;95.96;100275.20;1708238;81;21541;-51
2021/12/16 12:57:47;;;;;;;17.82;10.55;;;;;;;7.32;95.97;100274.70;1767266;79;21044;-55
2021/12/16 13:00:29;;;;;;;15.28;9.93;;;;;;;7.35;95.66;100283.77;1759192;80;20978;-56
2021/12/16 13:03:17;;;;;;;18.50;11.55;;;;;;;7.35;95.22;100286.38;1758565;79;21117;-54
2021/12/16 13:05:57;;;;;;;20.57;13.38;;;;;;;7.36;95.04;100284.19;1770684;79;21046;-51
2021/12/16 13:08:33;;;;;;;17.60;11.43;;;;;;;7.44;95.16;100289.63;1764434;78;21468;-54
2021/12/16 13:11:08;;;;;;;18.55;13.13;;;;;;;7.43;95.04;100288.36;1778323;79;20995;-53
2021/12/16 13:13:50;;;;;;;18.42;11.97;;;;;;;7.51;95.03;100292.92;1769525;78;20967;-52
2021/12/16 13:32:44;;;;;;;18.15;12.82;;;;;;;7.49;93.18;100301.27;1758318;80;21371;-53
2021/12/16 13:35:22;;;;;;;18.02;12.40;;;;;;;7.50;93.22;100296.00;1722537;80;21586;-54
2021/12/16 13:37:46;;;;;;;17.00;12.43;;;;;;;7.50;93.17;100302.55;1755384;79;20979;-53
2021/12/16 13:40:26;;;;;;;21.00;13.18;;;;;;;7.43;92.75;100288.36;1760268;80;20970;-51
2021/12/16 13:43:05;;;;;;;19.82;14.38;;;;;;;7.40;92.72;100275.34;1761534;80;20978;-52
2021/12/16 13:45:49;;;;;;;15.43;10.88;;;;;;;7.44;92.78;100273.05;1745344;80;21538;-53
2021/12/16 13:48:47;;;;;;;21.50;12.50;;;;;;;7.48;91.74;100265.55;1733656;81;21030;-50
2021/12/16 13:58:18;;;;;;;23.18;15.18;;;;;;;7.38;91.27;100267.99;1762479;80;20990;-53
2021/12/16 14:02:53;;;;;;;11.12;8.40;;;;;;;7.17;90.59;100251.97;1765145;79;20972;-50
2021/12/16 14:05:33;;;;;;;13.90;9.55;;;;;;;7.06;89.80;100250.93;1750911;81;20971;-55
2021/12/16 14:08:01;;;;;;;18.48;12.90;;;;;;;7.04;89.87;100257.08;1752741;81;20972;-53
2021/12/16 14:10:45;;;;;;;14.03;9.85;;;;;;;6.99;89.73;100253.29;1755139;81;20994;-52
2021/12/16 14:14:11;;;;;;;10.13;7.42;;;;;;;6.99;90.10;100270.29;1752872;81;21022;-52
2021/12/16 14:16:32;;;;;;;11.10;8.33;;;;;;;6.96;89.93;100269.05;1723029;82;21003;-53
2021/12/16 14:25:13;;;;;;;9.88;7.10;;;;;;;6.82;89.76;100302.09;1723290;82;21163;-50
2021/12/16 14:34:29;;;;;;;11.25;7.40;;;;;;;6.78;90.09;100287.80;1731823;81;21050;-54